createdAt,value
2022-10-18T00:00:54.956Z,27.90
2022-10-18T00:03:22.620Z,32.92
2022-10-18T00:05:50.040Z,21.58
2022-10-18T00:08:18.402Z,21.73
2022-10-18T00:10:45.897Z,24.02
2022-10-18T00:13:12.783Z,25.33
2022-10-18T00:15:39.572Z,43.80
2022-10-18T00:18:06.433Z,29.77
2022-10-18T00:20:33.124Z,30.45
2022-10-18T00:22:59.812Z,28.58
2022-10-18T00:25:26.593Z,37.35
2022-10-18T00:27:53.291Z,69.20
2022-10-18T00:30:20.060Z,34.03
2022-10-18T00:32:46.788Z,30.90
2022-10-18T00:35:13.552Z,28.85
2022-10-18T00:37:40.277Z,35.50
2022-10-18T00:40:07.992Z,32.45
2022-10-18T00:42:37.196Z,31.55
2022-10-18T00:45:19.955Z,33.47
2022-10-18T00:47:58.318Z,29.98
2022-10-18T00:50:28.701Z,37.10
2022-10-18T00:53:04.756Z,41.20
2022-10-18T00:55:33.996Z,34.85
2022-10-18T00:58:02.103Z,34.08
2022-10-18T01:00:28.947Z,27.15
2022-10-18T01:02:56.014Z,34.38
2022-10-18T01:05:24.005Z,34.67
2022-10-18T01:08:19.680Z,61.15
2022-10-18T01:11:13.015Z,50.40
2022-10-18T01:14:37.110Z,77.75
2022-10-18T01:17:34.452Z,50.97
2022-10-18T01:20:41.856Z,46.10
2022-10-18T01:23:32.718Z,56.35
2022-10-18T01:26:33.537Z,37.17
2022-10-18T01:29:19.111Z,45.08
2022-10-18T01:31:59.703Z,65.38
2022-10-18T01:34:33.701Z,55.05
2022-10-18T01:37:04.504Z,52.67
2022-10-18T01:39:37.206Z,59.10
2022-10-18T01:42:11.559Z,63.20
2022-10-18T01:44:41.616Z,71.75
2022-10-18T01:47:12.256Z,57.30
2022-10-18T01:49:38.966Z,50.53
2022-10-18T01:52:05.892Z,77.88
2022-10-18T01:54:41.193Z,67.25
2022-10-18T01:57:32.917Z,65.15
2022-10-18T02:00:15.027Z,50.05
2022-10-18T02:03:03.073Z,56.22
2022-10-18T02:05:51.796Z,62.10
2022-10-18T02:08:54.686Z,56.88
2022-10-18T02:11:22.130Z,64.65
2022-10-18T02:14:12.342Z,57.28
2022-10-18T02:16:49.206Z,71.13
2022-10-18T02:19:37.358Z,71.53
2022-10-18T02:22:07.205Z,56.00
2022-10-18T02:24:41.897Z,69.45
2022-10-18T02:27:09.728Z,97.65
2022-10-18T02:29:37.550Z,53.92
2022-10-18T02:33:04.269Z,64.85
2022-10-18T02:35:41.029Z,40.50
2022-10-18T02:38:10.089Z,60.42
2022-10-18T02:40:36.919Z,46.97
2022-10-18T02:43:06.571Z,44.80
2022-10-18T02:45:33.816Z,55.85
2022-10-18T02:48:00.537Z,46.22
2022-10-18T02:50:27.506Z,37.97
2022-10-18T02:52:54.203Z,41.05
2022-10-18T02:55:21.008Z,49.63
2022-10-18T02:57:47.779Z,53.80
2022-10-18T03:00:15.213Z,35.05
2022-10-18T03:02:41.915Z,38.08
2022-10-18T03:05:08.873Z,28.65
2022-10-18T03:07:35.668Z,42.72
2022-10-18T03:10:02.480Z,25.33
2022-10-18T03:12:29.183Z,21.10
2022-10-18T03:14:55.882Z,20.33
2022-10-18T03:17:22.623Z,22.65
2022-10-18T03:19:49.472Z,22.88
2022-10-18T03:22:16.270Z,22.92
2022-10-18T03:24:43.016Z,15.98
2022-10-18T03:27:09.713Z,18.92
2022-10-18T03:29:36.429Z,20.15
2022-10-18T03:32:03.537Z,18.95
2022-10-18T03:34:30.228Z,12.52
2022-10-18T03:37:00.937Z,14.38
2022-10-18T03:39:30.174Z,12.02
2022-10-18T03:41:57.097Z,12.15
2022-10-18T03:44:23.852Z,17.27
2022-10-18T03:46:50.560Z,12.02
2022-10-18T03:49:17.251Z,8.75
2022-10-18T03:51:43.957Z,19.00
2022-10-18T03:54:10.694Z,14.30
2022-10-18T03:56:37.445Z,13.07
2022-10-18T03:59:04.512Z,14.48
2022-10-18T04:01:31.551Z,6.53
2022-10-18T04:03:58.425Z,11.63
2022-10-18T04:06:25.112Z,12.38
2022-10-18T04:08:51.835Z,11.48
2022-10-18T04:11:18.646Z,10.70
2022-10-18T04:13:45.383Z,12.77
2022-10-18T04:16:12.095Z,12.65
2022-10-18T04:18:38.819Z,8.90
2022-10-18T04:21:05.734Z,15.43
2022-10-18T04:23:35.055Z,12.95
2022-10-18T04:26:04.748Z,10.48
2022-10-18T04:28:31.497Z,13.50
2022-10-18T04:30:58.280Z,18.60
2022-10-18T04:33:25.073Z,22.08
2022-10-18T04:35:53.356Z,19.40
2022-10-18T04:38:20.348Z,13.40
2022-10-18T04:40:47.132Z,20.92
2022-10-18T04:43:13.905Z,13.50
2022-10-18T04:45:40.701Z,16.77
2022-10-18T04:48:07.791Z,15.55
2022-10-18T04:50:34.493Z,15.82
2022-10-18T04:53:01.204Z,16.75
2022-10-18T04:55:27.991Z,13.50
2022-10-18T04:57:54.761Z,11.90
2022-10-18T05:00:21.507Z,9.48
2022-10-18T05:02:48.388Z,12.70
2022-10-18T05:05:15.386Z,12.30
2022-10-18T05:07:42.120Z,10.73
2022-10-18T05:10:09.541Z,12.35
2022-10-18T05:12:36.258Z,9.55
2022-10-18T05:15:03.315Z,10.68
2022-10-18T05:17:30.069Z,10.10
2022-10-18T05:19:56.909Z,9.88
2022-10-18T05:22:23.605Z,21.63
2022-10-18T05:24:50.302Z,11.30
2022-10-18T05:27:17.024Z,7.88
2022-10-18T05:29:43.784Z,8.48
2022-10-18T05:32:10.509Z,15.55
2022-10-18T05:34:37.303Z,19.58
2022-10-18T05:37:04.167Z,11.48
2022-10-18T05:39:31.054Z,12.02
2022-10-18T05:41:58.110Z,6.18
2022-10-18T05:44:24.783Z,8.95
2022-10-18T05:46:51.678Z,12.63
2022-10-18T05:49:18.594Z,6.20
2022-10-18T05:51:45.306Z,10.02
2022-10-18T05:54:12.784Z,13.43
2022-10-18T05:56:40.181Z,23.10
2022-10-18T05:59:11.960Z,19.27
2022-10-18T06:01:40.611Z,8.75
2022-10-18T06:04:08.329Z,14.73
2022-10-18T06:06:35.120Z,13.65
2022-10-18T06:09:03.378Z,9.13
2022-10-18T06:11:31.122Z,12.52
2022-10-18T06:13:58.519Z,19.58
2022-10-18T06:16:32.027Z,20.48
2022-10-18T06:19:00.016Z,17.42
2022-10-18T06:21:27.621Z,22.33
2022-10-18T06:23:58.403Z,19.10
2022-10-18T06:26:27.219Z,19.05
2022-10-18T06:28:54.054Z,18.38
2022-10-18T06:31:21.287Z,19.48
2022-10-18T06:33:48.606Z,13.20
2022-10-18T06:36:23.991Z,12.30
2022-10-18T06:38:51.624Z,19.23
2022-10-18T06:41:19.468Z,14.07
2022-10-18T06:43:57.480Z,10.93
2022-10-18T06:46:25.884Z,14.10
2022-10-18T06:48:52.755Z,15.98
2022-10-18T06:51:20.457Z,14.75
2022-10-18T06:53:59.712Z,18.77
2022-10-18T06:56:35.315Z,21.30
2022-10-18T06:59:02.347Z,19.08
2022-10-18T07:01:29.202Z,18.73
2022-10-18T07:03:56.545Z,24.42
2022-10-18T07:06:24.256Z,17.95
2022-10-18T07:08:54.980Z,17.73
2022-10-18T07:11:27.191Z,20.90
2022-10-18T07:14:00.720Z,20.85
2022-10-18T07:16:27.464Z,20.70
2022-10-18T07:18:54.217Z,20.40
2022-10-18T07:21:24.292Z,32.92
2022-10-18T07:23:52.549Z,20.23
2022-10-18T07:26:27.280Z,18.48
2022-10-18T07:28:59.086Z,25.35
2022-10-18T07:31:26.544Z,16.27
2022-10-18T07:33:53.931Z,23.50
2022-10-18T07:36:22.092Z,20.98
2022-10-18T07:38:49.893Z,18.42
2022-10-18T07:41:16.643Z,19.23
2022-10-18T07:43:47.338Z,16.10
2022-10-18T07:46:15.685Z,19.65
2022-10-18T07:48:42.904Z,19.80
2022-10-18T07:51:10.274Z,17.20
2022-10-18T07:53:37.515Z,18.83
2022-10-18T07:56:09.504Z,20.80
2022-10-18T07:58:37.145Z,21.50
2022-10-18T08:01:08.816Z,28.60
2022-10-18T08:03:37.051Z,27.67
2022-10-18T08:06:06.009Z,25.33
2022-10-18T08:08:32.817Z,25.42
2022-10-18T08:11:09.833Z,33.22
2022-10-18T08:13:36.699Z,25.15
2022-10-18T08:16:10.820Z,18.05
2022-10-18T08:18:38.325Z,27.35
2022-10-18T08:21:10.192Z,21.67
2022-10-18T08:23:38.252Z,24.20
2022-10-18T08:26:12.072Z,20.67
2022-10-18T08:28:39.497Z,21.88
2022-10-18T08:31:10.672Z,19.38
2022-10-18T08:33:39.180Z,25.25
2022-10-18T08:36:10.478Z,25.23
2022-10-18T08:38:40.281Z,21.98
2022-10-18T08:41:51.182Z,21.27
2022-10-18T08:44:31.849Z,22.27
2022-10-18T08:47:18.209Z,21.75
2022-10-18T08:50:04.273Z,23.30
2022-10-18T08:52:52.144Z,25.27
2022-10-18T08:55:23.712Z,25.27
2022-10-18T08:57:51.561Z,25.23
2022-10-18T09:00:27.275Z,25.83
2022-10-18T09:03:22.197Z,27.65
2022-10-18T09:06:01.158Z,23.50
2022-10-18T09:08:46.293Z,23.25
2022-10-18T09:11:32.682Z,18.38
2022-10-18T09:14:50.703Z,21.98
2022-10-18T09:17:59.361Z,21.15
2022-10-18T09:20:51.449Z,14.05
2022-10-18T09:23:43.993Z,24.13
2022-10-18T09:26:19.282Z,22.92
2022-10-18T09:29:13.565Z,19.27
2022-10-18T09:32:16.468Z,21.48
2022-10-18T09:34:51.350Z,21.90
2022-10-18T09:37:21.476Z,18.52
2022-10-18T09:39:51.699Z,20.17
2022-10-18T09:42:31.561Z,20.38
2022-10-18T09:45:27.284Z,18.00
2022-10-18T09:48:05.556Z,19.15
2022-10-18T09:50:50.717Z,19.27
2022-10-18T09:53:54.059Z,15.98
2022-10-18T09:56:30.321Z,16.83
2022-10-18T09:58:57.237Z,20.02
2022-10-18T10:01:31.442Z,17.25
2022-10-18T10:03:58.257Z,16.83
2022-10-18T10:06:29.278Z,18.95
2022-10-18T10:09:06.374Z,16.52
2022-10-18T10:11:45.455Z,16.05
2022-10-18T10:14:23.472Z,17.88
2022-10-18T10:16:51.636Z,15.10
2022-10-18T10:19:56.726Z,16.50
2022-10-18T10:22:35.507Z,14.40
2022-10-18T10:25:04.054Z,16.25
2022-10-18T10:27:43.536Z,17.23
2022-10-18T10:30:33.461Z,16.95
2022-10-18T10:33:00.277Z,17.77
2022-10-18T10:35:55.577Z,15.27
2022-10-18T10:38:29.353Z,16.08
2022-10-18T10:40:57.468Z,19.35
2022-10-18T10:43:37.483Z,14.15
2022-10-18T10:46:11.135Z,14.13
2022-10-18T10:49:21.737Z,19.13
2022-10-18T10:52:08.272Z,13.75
2022-10-18T10:54:50.316Z,12.70
2022-10-18T10:57:27.909Z,14.35
2022-10-18T10:59:59.681Z,11.25
2022-10-18T11:02:29.158Z,8.77
2022-10-18T11:05:14.954Z,7.85
2022-10-18T11:07:46.569Z,6.50
2022-10-18T11:10:24.329Z,7.88
2022-10-18T11:13:30.784Z,5.63
2022-10-18T11:16:13.621Z,10.60
2022-10-18T11:18:43.856Z,7.30
2022-10-18T11:21:21.953Z,7.28
2022-10-18T11:23:48.803Z,6.88
2022-10-18T11:27:04.650Z,9.35
2022-10-18T11:29:49.413Z,8.07
2022-10-18T11:32:54.083Z,7.10
2022-10-18T11:35:52.275Z,7.03
2022-10-18T11:39:05.347Z,6.13
2022-10-18T11:42:00.728Z,5.63
2022-10-18T11:45:14.725Z,5.70
2022-10-18T11:47:55.748Z,5.68
2022-10-18T11:50:50.568Z,5.97
2022-10-18T11:53:55.755Z,6.20
2022-10-18T11:56:59.265Z,7.28
2022-10-18T11:59:38.089Z,9.40
2022-10-18T12:02:37.486Z,5.13
2022-10-18T12:05:23.959Z,4.50
2022-10-18T12:08:18.274Z,5.45
2022-10-18T12:11:06.105Z,4.70
2022-10-18T12:13:43.187Z,9.18
2022-10-18T12:16:12.396Z,7.18
2022-10-18T12:18:58.837Z,6.10
2022-10-18T12:21:31.230Z,6.68
2022-10-18T13:12:30.274Z,7.45
2022-10-18T13:15:26.250Z,8.95
2022-10-18T13:18:21.017Z,10.32
2022-10-18T13:21:10.882Z,10.52
2022-10-18T13:24:33.702Z,8.35
2022-10-18T13:27:31.476Z,10.63
2022-10-18T13:30:42.482Z,11.70
2022-10-18T13:33:41.916Z,10.70
2022-10-18T13:36:22.765Z,9.82
2022-10-18T13:39:07.333Z,11.40
2022-10-18T13:41:46.121Z,10.85
2022-10-18T13:44:42.474Z,11.43
2022-10-18T13:47:32.742Z,9.02
2022-10-18T13:50:27.152Z,13.90
2022-10-18T13:53:09.192Z,11.68
2022-10-18T13:56:06.425Z,10.75
2022-10-18T13:59:29.978Z,10.43
2022-10-18T14:02:51.802Z,10.00
2022-10-18T14:05:41.196Z,9.02
2022-10-18T14:08:37.237Z,9.05
2022-10-18T14:11:33.920Z,9.60
2022-10-18T14:14:46.198Z,10.43
2022-10-18T14:17:55.752Z,10.63
2022-10-18T14:21:12.238Z,9.82
2022-10-18T14:23:45.060Z,10.68
2022-10-18T14:26:20.825Z,11.32
2022-10-18T14:29:06.983Z,9.68
2022-10-18T14:31:35.132Z,13.68
2022-10-18T14:34:02.844Z,12.25
2022-10-18T14:36:45.741Z,14.40
2022-10-18T14:39:24.136Z,17.50
2022-10-18T14:41:54.265Z,16.58
2022-10-18T14:44:31.346Z,17.63
2022-10-18T14:47:23.662Z,14.93
2022-10-18T14:49:54.241Z,19.02
2022-10-18T14:52:30.490Z,20.92
2022-10-18T14:55:02.224Z,23.70
2022-10-18T14:57:35.074Z,18.80
2022-10-18T15:00:08.656Z,20.60
2022-10-18T15:02:39.672Z,22.38
2022-10-18T15:05:21.627Z,23.55
2022-10-18T15:07:51.201Z,23.17
2022-10-18T15:10:30.626Z,26.10
2022-10-18T15:13:09.670Z,23.27
2022-10-18T15:15:38.624Z,22.83
2022-10-18T15:18:06.735Z,24.95
2022-10-18T15:20:42.500Z,24.63
2022-10-18T15:23:27.273Z,24.73
2022-10-18T15:26:05.389Z,24.60
2022-10-18T15:28:49.545Z,24.02
2022-10-18T15:31:28.670Z,24.13
2022-10-18T15:34:26.580Z,26.67
2022-10-18T15:36:56.469Z,28.77
2022-10-18T15:39:33.144Z,27.40
2022-10-18T15:42:02.266Z,27.83
2022-10-18T15:44:53.684Z,23.20
2022-10-18T15:47:22.872Z,29.52
2022-10-18T15:50:00.513Z,27.42
2022-10-18T15:52:41.472Z,26.60
2022-10-18T15:55:30.907Z,24.55
2022-10-18T15:58:16.113Z,22.73
2022-10-18T16:00:44.991Z,27.55
2022-10-18T16:03:13.040Z,24.50
2022-10-18T16:05:41.122Z,27.65
2022-10-18T16:08:26.329Z,27.27
2022-10-18T16:10:53.089Z,24.75
2022-10-18T16:13:20.014Z,24.30
2022-10-18T16:15:47.006Z,29.10
2022-10-18T16:18:18.312Z,22.15
2022-10-18T16:20:46.988Z,23.48
2022-10-18T16:23:28.673Z,25.23
2022-10-18T16:25:57.228Z,23.40
2022-10-18T16:28:26.197Z,26.77
2022-10-18T16:31:00.197Z,29.65
2022-10-18T16:33:27.448Z,25.20
2022-10-18T16:35:54.886Z,24.83
2022-10-18T16:38:34.817Z,24.23
2022-10-18T16:41:07.543Z,23.98
2022-10-18T16:43:35.742Z,27.13
2022-10-18T16:46:04.531Z,26.77
2022-10-18T16:48:31.741Z,23.77
2022-10-18T16:50:59.012Z,25.33
2022-10-18T16:53:26.264Z,28.30
2022-10-18T16:56:00.446Z,22.02
2022-10-18T16:58:29.872Z,30.60
2022-10-18T17:00:58.454Z,27.02
2022-10-18T17:03:26.320Z,26.60
2022-10-18T17:05:54.004Z,26.63
2022-10-18T17:08:25.177Z,31.50
2022-10-18T17:10:55.946Z,29.58
2022-10-18T17:13:24.816Z,23.48
2022-10-18T17:15:53.300Z,29.98
2022-10-18T17:18:26.274Z,32.03
2022-10-18T17:20:53.430Z,31.15
2022-10-18T17:23:20.427Z,27.60
2022-10-18T17:25:59.061Z,31.05
2022-10-18T17:28:34.063Z,32.20
2022-10-18T17:31:00.844Z,28.55
2022-10-18T17:33:27.584Z,28.48
2022-10-18T17:35:54.305Z,31.48
2022-10-18T17:38:21.055Z,28.65
2022-10-18T17:40:47.761Z,38.28
2022-10-18T17:43:14.522Z,36.80
2022-10-18T17:45:50.879Z,30.15
2022-10-18T17:48:17.842Z,37.58
2022-10-18T17:50:44.962Z,35.25
2022-10-18T17:53:13.072Z,36.00
2022-10-18T17:55:40.418Z,32.72
2022-10-18T17:58:07.535Z,28.92
2022-10-18T18:00:34.318Z,37.10
2022-10-18T18:03:01.491Z,35.70
2022-10-18T18:05:34.103Z,36.90
2022-10-18T18:08:04.154Z,45.53
2022-10-18T18:10:33.947Z,37.92
2022-10-18T18:13:01.477Z,39.35
2022-10-18T18:15:28.345Z,37.63
2022-10-18T18:17:57.472Z,141.23
2022-10-18T18:20:25.802Z,44.08
2022-10-18T18:22:52.950Z,252.88
2022-10-18T18:25:20.018Z,283.30
2022-10-18T18:27:46.763Z,37.22
2022-10-18T18:30:15.232Z,33.90
2022-10-18T18:32:42.009Z,63.38
2022-10-18T18:35:08.853Z,37.05
2022-10-18T18:37:38.675Z,32.92
2022-10-18T18:40:06.136Z,41.33
2022-10-18T18:42:33.229Z,497.85
2022-10-18T18:45:00.163Z,487.90
2022-10-18T18:47:27.974Z,49.15
2022-10-18T18:49:54.748Z,524.63
2022-10-18T18:52:21.525Z,181.98
2022-10-18T18:54:48.290Z,191.18
2022-10-18T18:57:15.013Z,95.40
2022-10-18T18:59:41.786Z,245.30
2022-10-18T19:02:10.534Z,106.38
2022-10-18T19:04:37.432Z,235.98
2022-10-18T19:07:04.202Z,204.27
2022-10-18T19:09:31.743Z,49.88
2022-10-18T19:11:58.497Z,66.70
2022-10-18T19:14:26.043Z,43.05
2022-10-18T19:16:57.411Z,114.10
2022-10-18T19:19:27.253Z,183.93
2022-10-18T19:22:00.338Z,238.18
2022-10-18T19:24:32.356Z,132.35
2022-10-18T19:27:05.300Z,50.13
2022-10-18T19:29:36.223Z,51.55
2022-10-18T19:32:07.699Z,72.47
2022-10-18T19:34:35.067Z,44.00
2022-10-18T19:37:02.155Z,44.78
2022-10-18T19:39:32.549Z,59.63
2022-10-18T19:42:03.650Z,45.95
2022-10-18T19:44:34.798Z,63.25
2022-10-18T19:47:03.418Z,94.35
2022-10-18T19:49:30.192Z,58.67
2022-10-18T19:51:57.966Z,81.57
2022-10-18T19:54:25.283Z,81.82
2022-10-18T19:56:52.071Z,124.68
2022-10-18T19:59:19.702Z,129.57
2022-10-18T20:01:46.621Z,98.32
2022-10-18T20:04:16.400Z,94.50
2022-10-18T20:06:43.619Z,89.25
2022-10-18T20:09:16.095Z,125.78
2022-10-18T20:11:47.468Z,79.47
2022-10-18T20:14:14.254Z,104.57
2022-10-18T20:16:41.058Z,86.28
2022-10-18T20:19:08.427Z,98.07
2022-10-18T20:21:36.175Z,102.95
2022-10-18T20:24:07.607Z,77.70
2022-10-18T20:26:35.767Z,66.90
2022-10-18T20:29:04.002Z,78.65
2022-10-18T20:31:38.285Z,74.30
2022-10-18T20:34:10.529Z,59.83
2022-10-18T20:36:38.275Z,47.55
2022-10-18T20:39:06.072Z,68.90
2022-10-18T20:41:37.974Z,69.20
2022-10-18T20:44:11.443Z,55.05
2022-10-18T20:46:40.048Z,59.80
2022-10-18T20:49:08.931Z,57.53
2022-10-18T20:51:35.883Z,53.45
2022-10-18T20:56:38.659Z,85.57
2022-10-18T20:59:09.481Z,73.30
2022-10-18T21:01:39.116Z,99.13
2022-10-18T21:04:09.114Z,62.22
2022-10-18T21:06:43.119Z,63.22
2022-10-18T21:09:19.696Z,82.60
2022-10-18T21:11:50.754Z,73.68
2022-10-18T21:14:20.808Z,131.15
2022-10-18T21:16:49.397Z,112.60
2022-10-18T21:19:21.202Z,100.10
2022-10-18T21:21:51.640Z,119.90
2022-10-18T21:24:21.049Z,75.22
2022-10-18T21:26:48.301Z,81.28
2022-10-18T21:29:21.528Z,88.43
2022-10-18T21:31:49.349Z,90.93
2022-10-18T21:34:17.501Z,51.78
2022-10-18T21:36:46.907Z,84.75
2022-10-18T21:39:19.024Z,70.70
2022-10-18T21:41:46.692Z,76.28
2022-10-18T21:44:14.826Z,96.55
2022-10-18T21:46:46.649Z,83.68
2022-10-18T21:49:15.234Z,72.10
2022-10-18T21:51:42.997Z,102.63
2022-10-18T21:54:16.049Z,66.57
2022-10-18T21:56:44.549Z,72.05
2022-10-18T21:59:13.266Z,93.43
2022-10-18T22:01:40.512Z,68.70
2022-10-18T22:04:21.248Z,89.20
2022-10-18T22:06:48.331Z,117.40
2022-10-18T22:09:15.300Z,66.55
2022-10-18T22:11:48.622Z,78.82
2022-10-18T22:14:15.445Z,75.20
2022-10-18T22:16:42.286Z,90.88
2022-10-18T22:19:09.113Z,65.13
2022-10-18T22:21:35.967Z,48.45
2022-10-18T22:24:07.373Z,47.20
2022-10-18T22:26:38.169Z,81.22
2022-10-18T22:29:13.122Z,84.05
2022-10-18T22:31:44.681Z,77.07
2022-10-18T22:34:19.743Z,77.10
2022-10-18T22:36:46.508Z,87.10
2022-10-18T22:39:15.121Z,84.95
2022-10-18T22:41:43.332Z,54.15
2022-10-18T22:44:13.261Z,66.25
2022-10-18T22:46:41.909Z,58.15
2022-10-18T22:49:09.288Z,49.47
2022-10-18T22:54:08.246Z,46.65
2022-10-18T22:56:35.460Z,60.55
2022-10-18T22:59:02.296Z,56.80
2022-10-18T23:01:29.192Z,63.85
2022-10-18T23:03:59.861Z,57.05
2022-10-18T23:06:30.963Z,58.58
2022-10-18T23:09:00.575Z,54.38
2022-10-18T23:11:28.602Z,42.22
2022-10-18T23:13:55.609Z,52.60
2022-10-18T23:16:23.135Z,90.28
2022-10-18T23:18:55.836Z,42.53
2022-10-18T23:21:25.682Z,48.55
2022-10-18T23:23:53.835Z,38.53
2022-10-18T23:26:24.432Z,32.75
2022-10-18T23:28:52.867Z,34.58
2022-10-18T23:31:30.353Z,40.72
2022-10-18T23:34:00.320Z,25.42
2022-10-18T23:36:28.043Z,21.70
2022-10-18T23:38:55.584Z,82.93
2022-10-18T23:41:23.429Z,28.17
2022-10-18T23:43:50.779Z,31.13
2022-10-18T23:46:18.984Z,36.97
2022-10-18T23:48:46.665Z,33.33
2022-10-18T23:51:13.893Z,38.70
2022-10-18T23:53:40.676Z,42.72
2022-10-18T23:56:11.974Z,31.57
2022-10-18T23:58:39.841Z,30.80
